createdAt,value
2022-08-17T00:01:27.454Z,99.90
2022-08-17T00:03:55.009Z,99.90
2022-08-17T00:06:28.054Z,99.90
2022-08-17T00:08:57.878Z,99.90
2022-08-17T00:11:28.524Z,99.90
2022-08-17T00:13:59.247Z,99.90
2022-08-17T00:16:56.345Z,99.90
2022-08-17T00:19:23.451Z,99.90
2022-08-17T00:22:33.171Z,99.90
2022-08-17T00:24:39.682Z,99.90
2022-08-17T00:27:06.352Z,99.90
2022-08-17T00:29:33.035Z,99.90
2022-08-17T00:32:01.827Z,99.90
2022-08-17T00:34:48.495Z,99.90
2022-08-17T00:37:15.189Z,99.90
2022-08-17T00:39:41.970Z,99.90
2022-08-17T00:42:18.114Z,99.90
2022-08-17T00:44:45.146Z,99.90
2022-08-17T00:47:13.227Z,99.90
2022-08-17T00:49:40.018Z,99.90
2022-08-17T00:52:13.621Z,99.90
2022-08-17T00:54:43.738Z,99.90
2022-08-17T00:57:18.228Z,99.90
2022-08-17T00:59:58.629Z,99.90
2022-08-17T01:02:34.886Z,99.90
2022-08-17T01:05:14.865Z,99.90
2022-08-17T01:07:42.770Z,99.90
2022-08-17T01:10:59.176Z,99.90
2022-08-17T01:13:01.480Z,99.90
2022-08-17T01:15:30.957Z,99.90
2022-08-17T01:17:57.821Z,99.90
2022-08-17T01:20:24.611Z,99.90
2022-08-17T01:22:51.690Z,99.90
2022-08-17T01:25:20.147Z,99.90
2022-08-17T01:27:48.334Z,99.90
2022-08-17T01:30:57.791Z,99.90
2022-08-17T01:33:03.763Z,99.90
2022-08-17T01:35:30.503Z,99.90
2022-08-17T01:37:57.215Z,99.90
2022-08-17T01:41:01.242Z,99.90
2022-08-17T01:43:49.052Z,99.90
2022-08-17T01:46:24.015Z,99.90
2022-08-17T01:48:50.703Z,99.90
2022-08-17T01:51:18.222Z,99.90
2022-08-17T01:53:49.426Z,99.90
2022-08-17T01:56:20.060Z,99.90
2022-08-17T01:58:46.715Z,99.90
2022-08-17T02:01:16.928Z,99.90
2022-08-17T02:03:53.359Z,99.90
2022-08-17T02:06:30.371Z,99.90
2022-08-17T02:09:03.020Z,99.90
2022-08-17T02:11:32.647Z,99.90
2022-08-17T02:14:02.415Z,99.90
2022-08-17T02:16:36.933Z,99.90
2022-08-17T02:19:15.325Z,99.90
2022-08-17T02:21:44.432Z,99.90
2022-08-17T02:24:16.869Z,99.90
2022-08-17T02:26:43.841Z,99.90
2022-08-17T02:29:10.577Z,99.90
2022-08-17T02:31:37.263Z,99.90
2022-08-17T02:34:05.343Z,99.90
2022-08-17T02:36:33.654Z,99.90
2022-08-17T02:39:02.413Z,99.90
2022-08-17T02:41:29.192Z,99.90
2022-08-17T02:43:55.833Z,99.90
2022-08-17T02:46:22.579Z,99.90
2022-08-17T02:48:49.296Z,99.90
2022-08-17T02:51:17.114Z,99.90
2022-08-17T02:53:44.222Z,99.90
2022-08-17T02:56:10.857Z,99.90
2022-08-17T02:58:37.520Z,99.90
2022-08-17T03:01:06.707Z,99.90
2022-08-17T03:03:34.004Z,99.90
2022-08-17T03:06:01.175Z,99.90
2022-08-17T03:08:27.964Z,99.90
2022-08-17T03:10:54.664Z,99.90
2022-08-17T03:13:21.385Z,99.90
2022-08-17T03:15:48.648Z,99.90
2022-08-17T03:18:25.315Z,99.90
2022-08-17T03:20:55.380Z,99.90
2022-08-17T03:23:23.963Z,99.90
2022-08-17T03:25:53.090Z,99.90
2022-08-17T03:28:21.527Z,99.90
2022-08-17T03:30:48.607Z,99.90
2022-08-17T03:33:15.419Z,99.90
2022-08-17T03:35:42.219Z,99.90
2022-08-17T03:38:11.008Z,99.90
2022-08-17T03:40:57.161Z,99.90
2022-08-17T03:43:25.172Z,99.90
2022-08-17T03:45:52.010Z,99.90
2022-08-17T03:48:20.672Z,99.90
2022-08-17T03:50:47.318Z,99.90
2022-08-17T03:53:17.394Z,99.90
2022-08-17T03:55:44.074Z,99.90
2022-08-17T03:58:10.819Z,99.90
2022-08-17T04:00:39.725Z,99.90
2022-08-17T04:03:06.564Z,99.90
2022-08-17T04:05:35.725Z,99.90
2022-08-17T04:08:02.713Z,99.90
2022-08-17T04:10:33.266Z,99.90
2022-08-17T04:13:05.391Z,99.90
2022-08-17T04:15:32.067Z,99.90
2022-08-17T04:17:59.069Z,99.90
2022-08-17T04:20:26.100Z,99.90
2022-08-17T04:23:02.479Z,99.90
2022-08-17T04:25:33.435Z,99.90
2022-08-17T04:28:00.656Z,99.90
2022-08-17T04:30:29.118Z,99.90
2022-08-17T04:33:03.925Z,99.90
2022-08-17T04:35:36.925Z,99.90
2022-08-17T04:38:04.279Z,99.90
2022-08-17T04:40:30.979Z,99.90
2022-08-17T04:43:06.164Z,99.90
2022-08-17T04:45:33.537Z,99.90
2022-08-17T04:48:01.193Z,99.90
2022-08-17T04:50:28.077Z,99.90
2022-08-17T04:52:55.124Z,99.90
2022-08-17T04:55:22.087Z,99.90
2022-08-17T04:57:48.803Z,99.90
2022-08-17T05:00:15.642Z,99.90
2022-08-17T05:02:50.080Z,99.90
2022-08-17T05:05:30.196Z,99.90
2022-08-17T05:08:00.063Z,99.90
2022-08-17T05:10:31.022Z,99.90
2022-08-17T05:13:03.665Z,99.90
2022-08-17T05:15:33.183Z,99.90
2022-08-17T05:18:03.802Z,99.90
2022-08-17T05:20:31.096Z,99.90
2022-08-17T05:23:00.159Z,99.90
2022-08-17T05:25:33.321Z,99.90
2022-08-17T05:28:03.995Z,99.90
2022-08-17T05:30:30.629Z,99.90
2022-08-17T05:33:07.782Z,99.90
2022-08-17T05:35:41.851Z,99.90
2022-08-17T05:38:08.932Z,99.90
2022-08-17T05:40:36.547Z,99.90
2022-08-17T05:43:18.757Z,99.90
2022-08-17T05:45:56.623Z,99.90
2022-08-17T05:48:35.664Z,99.90
2022-08-17T05:51:16.085Z,99.90
2022-08-17T05:53:51.905Z,99.90
2022-08-17T05:56:29.629Z,99.90
2022-08-17T05:59:14.300Z,99.90
2022-08-17T06:02:00.542Z,99.90
2022-08-17T06:04:57.680Z,99.90
2022-08-17T06:08:08.821Z,99.90
2022-08-17T06:10:42.622Z,99.90
2022-08-17T06:13:45.139Z,99.90
2022-08-17T06:16:28.221Z,99.90
2022-08-17T06:19:11.061Z,99.90
2022-08-17T06:21:42.204Z,99.90
2022-08-17T06:24:33.404Z,99.90
2022-08-17T06:27:13.695Z,99.90
2022-08-17T06:30:04.689Z,99.90
2022-08-17T06:32:31.467Z,99.90
2022-08-17T06:35:01.254Z,99.90
2022-08-17T06:37:44.393Z,99.90
2022-08-17T06:40:44.803Z,99.90
2022-08-17T06:43:12.087Z,99.90
2022-08-17T06:45:44.810Z,99.90
2022-08-17T06:48:52.529Z,99.90
2022-08-17T06:51:29.647Z,99.90
2022-08-17T06:54:20.087Z,99.90
2022-08-17T06:56:56.598Z,99.90
2022-08-17T06:59:35.682Z,99.90
2022-08-17T07:03:02.333Z,99.90
2022-08-17T07:05:48.068Z,99.90
2022-08-17T07:08:50.063Z,99.90
2022-08-17T07:11:33.801Z,99.90
2022-08-17T07:14:29.703Z,99.90
2022-08-17T07:16:58.614Z,99.90
2022-08-17T07:19:30.789Z,99.90
2022-08-17T07:22:24.923Z,99.90
2022-08-17T07:24:55.708Z,99.90
2022-08-17T07:27:28.962Z,99.90
2022-08-17T07:30:08.123Z,99.90
2022-08-17T07:32:40.304Z,99.90
2022-08-17T07:35:12.815Z,99.90
2022-08-17T07:38:07.184Z,99.90
2022-08-17T07:40:55.695Z,99.90
2022-08-17T07:43:29.585Z,99.90
2022-08-17T07:46:05.828Z,99.90
2022-08-17T07:48:37.912Z,99.90
2022-08-17T07:51:32.863Z,99.90
2022-08-17T07:54:19.671Z,99.90
2022-08-17T07:56:51.710Z,99.90
2022-08-17T07:59:29.432Z,99.90
2022-08-17T08:02:02.518Z,99.90
2022-08-17T08:04:59.808Z,99.90
2022-08-17T08:07:31.678Z,99.90
2022-08-17T08:10:07.748Z,99.90
2022-08-17T08:12:42.219Z,99.90
2022-08-17T08:15:19.588Z,99.90
2022-08-17T08:17:53.999Z,99.90
2022-08-17T08:20:52.521Z,99.90
2022-08-17T08:24:00.901Z,99.90
2022-08-17T08:26:39.886Z,99.90
2022-08-17T08:29:29.512Z,99.90
2022-08-17T08:32:15.033Z,99.90
2022-08-17T08:35:03.605Z,99.90
2022-08-17T08:37:50.551Z,99.90
2022-08-17T08:40:39.687Z,99.90
2022-08-17T08:43:26.975Z,99.90
2022-08-17T08:46:23.527Z,99.90
2022-08-17T08:48:56.082Z,99.90
2022-08-17T08:51:46.630Z,99.90
2022-08-17T08:54:26.752Z,99.90
2022-08-17T08:57:23.240Z,99.90
2022-08-17T09:00:20.883Z,99.90
2022-08-17T09:03:10.293Z,99.50
2022-08-17T09:05:42.625Z,98.60
2022-08-17T09:08:34.883Z,98.10
2022-08-17T09:12:02.378Z,96.40
2022-08-17T09:14:45.099Z,96.30
2022-08-17T09:17:36.351Z,96.90
2022-08-17T09:20:27.890Z,96.90
2022-08-17T09:23:10.481Z,96.50
2022-08-17T09:25:48.997Z,96.20
2022-08-17T09:28:25.190Z,95.40
2022-08-17T09:30:57.597Z,95.80
2022-08-17T09:33:26.020Z,94.80
2022-08-17T09:36:05.373Z,93.70
2022-08-17T09:38:37.954Z,92.50
2022-08-17T09:41:07.519Z,90.80
2022-08-17T09:44:02.041Z,90.50
2022-08-17T09:46:34.724Z,90.00
2022-08-17T09:49:27.817Z,90.20
2022-08-17T09:52:07.858Z,90.30
2022-08-17T09:54:40.195Z,90.30
2022-08-17T09:57:40.969Z,90.00
2022-08-17T10:00:20.307Z,87.80
2022-08-17T10:03:09.083Z,88.90
2022-08-17T10:05:56.615Z,88.40
2022-08-17T10:08:39.455Z,89.20
2022-08-17T10:11:20.026Z,84.80
2022-08-17T10:14:36.768Z,86.30
2022-08-17T10:17:10.639Z,85.60
2022-08-17T10:19:44.142Z,86.10
2022-08-17T10:22:34.964Z,82.20
2022-08-17T10:25:22.366Z,80.60
2022-08-17T10:27:58.563Z,80.90
2022-08-17T10:30:28.251Z,81.40
2022-08-17T10:33:00.007Z,79.50
2022-08-17T10:35:44.621Z,79.70
2022-08-17T10:38:24.509Z,78.80
2022-08-17T10:41:06.928Z,79.20
2022-08-17T10:43:37.669Z,79.40
2022-08-17T10:46:30.323Z,79.60
2022-08-17T10:49:16.465Z,79.20
2022-08-17T10:51:46.159Z,78.30
2022-08-17T10:54:24.819Z,79.10
2022-08-17T10:56:53.686Z,77.80
2022-08-17T10:59:50.517Z,76.00
2022-08-17T11:02:22.805Z,77.90
2022-08-17T11:05:07.063Z,77.80
2022-08-17T11:07:59.401Z,77.40
2022-08-17T11:10:52.322Z,77.30
2022-08-17T11:13:41.777Z,76.00
2022-08-17T11:16:08.638Z,74.40
2022-08-17T11:19:05.849Z,74.90
2022-08-17T11:22:07.481Z,75.70
2022-08-17T11:24:45.693Z,74.70
2022-08-17T11:27:34.015Z,71.30
2022-08-17T11:30:05.963Z,74.50
2022-08-17T11:32:38.184Z,73.30
2022-08-17T11:35:20.473Z,72.70
2022-08-17T11:38:07.718Z,71.30
2022-08-17T11:41:08.642Z,72.30
2022-08-17T11:44:17.708Z,71.00
2022-08-17T11:47:23.758Z,70.10
2022-08-17T11:50:11.343Z,68.00
2022-08-17T11:52:46.947Z,69.60
2022-08-17T11:55:35.756Z,68.90
2022-08-17T11:58:31.877Z,68.40
2022-08-17T12:01:03.024Z,65.80
2022-08-17T12:03:32.784Z,65.80
2022-08-17T12:06:11.599Z,65.20
2022-08-17T12:08:42.808Z,65.70
2022-08-17T12:11:55.601Z,66.20
2022-08-17T12:14:21.255Z,66.20
2022-08-17T12:17:06.133Z,64.00
2022-08-17T12:19:34.934Z,63.60
2022-08-17T12:22:16.577Z,63.90
2022-08-17T12:24:55.917Z,62.60
2022-08-17T12:28:04.788Z,63.00
2022-08-17T12:30:22.347Z,63.60
2022-08-17T12:32:49.334Z,62.00
2022-08-17T12:35:36.571Z,62.20
2022-08-17T12:38:06.593Z,62.20
2022-08-17T12:40:57.855Z,63.50
2022-08-17T12:43:27.756Z,63.40
2022-08-17T12:45:59.978Z,63.20
2022-08-17T12:48:28.979Z,63.10
2022-08-17T12:51:01.418Z,62.90
2022-08-17T12:53:30.832Z,61.70
2022-08-17T12:56:06.751Z,61.70
2022-08-17T12:58:37.881Z,59.60
2022-08-17T13:01:14.288Z,58.80
2022-08-17T13:03:47.608Z,59.60
2022-08-17T13:06:30.215Z,59.40
2022-08-17T13:08:56.996Z,58.90
2022-08-17T13:11:24.954Z,58.10
2022-08-17T13:13:54.697Z,58.20
2022-08-17T13:16:25.082Z,56.60
2022-08-17T13:19:15.364Z,54.60
2022-08-17T13:21:54.550Z,53.70
2022-08-17T13:24:26.321Z,54.70
2022-08-17T13:26:58.846Z,54.90
2022-08-17T13:29:39.664Z,55.00
2022-08-17T13:32:13.357Z,53.90
2022-08-17T13:35:07.742Z,53.80
2022-08-17T13:37:34.678Z,53.50
2022-08-17T13:40:35.460Z,53.10
2022-08-17T13:43:02.669Z,53.40
2022-08-17T13:45:36.114Z,54.70
2022-08-17T13:48:11.975Z,53.20
2022-08-17T13:50:56.321Z,53.00
2022-08-17T13:53:33.533Z,53.80
2022-08-17T13:56:37.586Z,54.20
2022-08-17T13:59:11.345Z,54.40
2022-08-17T14:01:53.409Z,53.60
2022-08-17T14:04:31.585Z,54.50
2022-08-17T14:07:27.032Z,54.80
2022-08-17T14:10:00.165Z,55.10
2022-08-17T14:12:30.392Z,54.10
2022-08-17T14:14:57.266Z,54.60
2022-08-17T14:17:25.848Z,53.80
2022-08-17T14:19:53.439Z,53.20
2022-08-17T14:22:27.342Z,52.90
2022-08-17T14:24:57.627Z,51.80
2022-08-17T14:27:24.618Z,52.60
2022-08-17T14:29:51.437Z,52.70
2022-08-17T14:32:22.007Z,53.50
2022-08-17T14:34:52.461Z,52.70
2022-08-17T14:37:21.084Z,52.70
2022-08-17T14:39:47.920Z,53.10
2022-08-17T14:42:14.921Z,53.30
2022-08-17T14:44:41.611Z,52.20
2022-08-17T14:47:08.765Z,52.40
2022-08-17T14:49:35.589Z,52.10
2022-08-17T14:52:02.560Z,52.30
2022-08-17T14:54:34.207Z,52.00
2022-08-17T14:57:22.611Z,52.50
2022-08-17T14:59:53.417Z,52.00
2022-08-17T15:02:29.796Z,52.60
2022-08-17T15:05:02.372Z,52.80
2022-08-17T15:07:30.738Z,52.40
2022-08-17T15:10:00.685Z,52.90
2022-08-17T15:12:32.642Z,51.50
2022-08-17T15:14:59.751Z,51.50
2022-08-17T15:17:26.466Z,52.10
2022-08-17T15:20:14.998Z,51.80
2022-08-17T15:22:43.269Z,52.20
2022-08-17T15:25:11.113Z,51.60
2022-08-17T15:27:38.219Z,52.40
2022-08-17T15:30:07.239Z,53.20
2022-08-17T15:32:36.483Z,53.40
2022-08-17T15:35:05.377Z,51.70
2022-08-17T15:37:32.153Z,51.80
2022-08-17T15:39:59.325Z,51.40
2022-08-17T15:42:26.629Z,52.00
2022-08-17T15:44:53.382Z,51.80
2022-08-17T15:47:20.192Z,52.30
2022-08-17T15:49:47.030Z,52.70
2022-08-17T15:52:23.364Z,51.60
2022-08-17T15:54:50.802Z,51.80
2022-08-17T15:57:17.770Z,52.00
2022-08-17T15:59:44.609Z,51.60
2022-08-17T16:03:13.893Z,51.20
2022-08-17T16:05:10.207Z,50.20
2022-08-17T16:07:37.907Z,50.40
2022-08-17T16:10:06.542Z,51.20
2022-08-17T16:12:33.748Z,50.60
2022-08-17T16:15:01.082Z,50.70
2022-08-17T16:17:39.098Z,51.30
2022-08-17T16:20:20.011Z,51.10
2022-08-17T16:22:50.005Z,51.30
2022-08-17T16:25:23.709Z,51.20
2022-08-17T16:28:10.414Z,49.40
2022-08-17T16:30:37.260Z,49.70
2022-08-17T16:33:04.445Z,50.70
2022-08-17T16:35:31.623Z,51.10
2022-08-17T16:37:58.698Z,51.00
2022-08-17T16:40:27.965Z,51.40
2022-08-17T16:42:55.783Z,51.50
2022-08-17T16:45:27.250Z,52.20
2022-08-17T16:47:55.113Z,52.20
2022-08-17T16:50:23.526Z,52.40
2022-08-17T16:52:50.937Z,52.40
2022-08-17T16:55:20.456Z,53.10
2022-08-17T16:57:50.226Z,53.50
2022-08-17T17:00:18.083Z,53.40
2022-08-17T17:02:47.236Z,53.10
2022-08-17T17:05:44.865Z,53.50
2022-08-17T17:08:37.483Z,53.60
2022-08-17T17:11:17.832Z,53.40
2022-08-17T17:13:56.393Z,53.40
2022-08-17T17:16:36.882Z,53.90
2022-08-17T17:19:11.300Z,53.90
2022-08-17T17:21:56.475Z,53.60
2022-08-17T17:24:43.459Z,54.40
2022-08-17T17:27:37.793Z,54.40
2022-08-17T17:30:12.904Z,54.70
2022-08-17T17:32:49.132Z,54.90
2022-08-17T17:35:36.609Z,54.50
2022-08-17T17:38:08.596Z,54.60
2022-08-17T17:40:42.008Z,54.90
2022-08-17T17:43:36.982Z,54.70
2022-08-17T17:46:26.769Z,55.10
2022-08-17T17:48:58.452Z,54.70
2022-08-17T17:52:03.556Z,55.40
2022-08-17T17:54:38.419Z,55.40
2022-08-17T17:57:14.009Z,55.80
2022-08-17T17:59:47.927Z,55.70
2022-08-17T18:02:33.716Z,56.10
2022-08-17T18:05:08.558Z,56.30
2022-08-17T18:07:46.240Z,56.20
2022-08-17T18:11:04.749Z,56.30
2022-08-17T18:13:59.138Z,56.80
2022-08-17T18:16:28.363Z,57.00
2022-08-17T18:18:59.621Z,56.80
2022-08-17T18:21:36.054Z,57.30
2022-08-17T18:24:05.068Z,57.60
2022-08-17T18:26:36.969Z,57.30
2022-08-17T18:29:35.112Z,57.40
2022-08-17T18:32:10.887Z,57.30
2022-08-17T18:34:47.385Z,57.50
2022-08-17T18:37:31.466Z,58.00
2022-08-17T18:39:58.305Z,57.60
2022-08-17T18:42:28.215Z,57.90
2022-08-17T18:44:55.815Z,58.10
2022-08-17T18:47:28.488Z,58.40
2022-08-17T18:49:58.576Z,58.60
2022-08-17T18:52:29.098Z,58.90
2022-08-17T18:55:21.399Z,59.10
2022-08-17T18:57:49.033Z,59.30
2022-08-17T19:00:34.253Z,59.30
2022-08-17T19:03:18.069Z,59.50
2022-08-17T19:05:52.250Z,59.80
2022-08-17T19:08:27.996Z,60.00
2022-08-17T19:10:59.222Z,60.30
2022-08-17T19:13:39.661Z,60.30
2022-08-17T19:16:21.530Z,60.40
2022-08-17T19:19:04.870Z,60.60
2022-08-17T19:21:39.492Z,60.80
2022-08-17T19:24:16.594Z,61.20
2022-08-17T19:26:54.333Z,61.40
2022-08-17T19:29:37.307Z,61.40
2022-08-17T19:32:07.306Z,61.50
2022-08-17T19:34:36.227Z,61.70
2022-08-17T19:37:09.952Z,61.70
2022-08-17T19:39:50.476Z,62.10
2022-08-17T19:42:52.582Z,62.00
2022-08-17T19:45:41.254Z,62.40
2022-08-17T19:48:23.615Z,62.30
2022-08-17T19:51:03.798Z,62.70
2022-08-17T19:54:04.451Z,62.70
2022-08-17T19:56:43.581Z,63.00
2022-08-17T19:59:16.114Z,62.90
2022-08-17T20:01:56.677Z,63.30
2022-08-17T20:04:32.259Z,63.30
2022-08-17T20:07:10.249Z,63.60
2022-08-17T20:09:40.804Z,63.90
2022-08-17T20:12:18.283Z,64.00
2022-08-17T20:14:56.091Z,64.00
2022-08-17T20:17:28.271Z,64.40
2022-08-17T20:20:05.211Z,64.50
2022-08-17T20:22:49.761Z,64.90
2022-08-17T20:25:45.636Z,64.90
2022-08-17T20:28:19.644Z,65.20
2022-08-17T20:30:46.593Z,65.20
2022-08-17T20:33:45.518Z,65.30
2022-08-17T20:36:18.254Z,65.60
2022-08-17T20:38:50.315Z,65.80
2022-08-17T20:41:25.357Z,66.00
2022-08-17T20:43:58.312Z,66.20
2022-08-17T20:46:55.540Z,66.30
2022-08-17T20:49:57.185Z,66.70
2022-08-17T20:53:01.578Z,66.40
2022-08-17T20:55:34.383Z,67.30
2022-08-17T20:58:16.312Z,67.50
2022-08-17T21:00:58.197Z,67.20
2022-08-17T21:03:24.909Z,67.50
2022-08-17T21:06:00.312Z,67.80
2022-08-17T21:08:33.193Z,68.30
2022-08-17T21:11:21.338Z,69.10
2022-08-17T21:14:19.171Z,69.10
2022-08-17T21:17:12.809Z,69.40
2022-08-17T21:20:10.261Z,69.90
2022-08-17T21:23:13.584Z,69.90
2022-08-17T21:26:10.569Z,70.40
2022-08-17T21:29:30.337Z,70.70
2022-08-17T21:32:01.697Z,71.20
2022-08-17T21:34:35.975Z,70.90
2022-08-17T21:37:31.835Z,71.90
2022-08-17T21:40:22.067Z,71.80
2022-08-17T21:42:58.602Z,72.00
2022-08-17T21:45:33.849Z,72.20
2022-08-17T21:48:20.610Z,72.70
2022-08-17T21:50:59.481Z,72.90
2022-08-17T21:53:43.389Z,73.10
2022-08-17T21:56:11.792Z,73.30
2022-08-17T21:58:47.881Z,73.60
2022-08-17T22:01:30.707Z,73.90
2022-08-17T22:04:05.081Z,74.00
2022-08-17T22:06:52.631Z,74.40
2022-08-17T22:09:32.062Z,74.70
2022-08-17T22:12:20.191Z,75.20
2022-08-17T22:14:56.891Z,75.80
2022-08-17T22:17:29.264Z,75.90
2022-08-17T22:20:06.122Z,76.00
2022-08-17T22:22:41.218Z,76.30
2022-08-17T22:25:19.199Z,76.70
2022-08-17T22:27:51.918Z,77.00
2022-08-17T22:30:37.574Z,77.00
2022-08-17T22:33:40.994Z,77.70
2022-08-17T22:36:27.675Z,77.60
2022-08-17T22:39:01.582Z,77.70
2022-08-17T22:41:28.204Z,78.40
2022-08-17T22:43:55.085Z,78.70
2022-08-17T22:46:23.688Z,78.90
2022-08-17T22:48:54.729Z,79.20
2022-08-17T22:51:25.507Z,79.60
2022-08-17T22:53:56.746Z,80.50
2022-08-17T22:56:25.346Z,80.20
2022-08-17T22:58:59.172Z,80.20
2022-08-17T23:01:28.881Z,80.70
2022-08-17T23:04:01.403Z,81.20
2022-08-17T23:06:30.102Z,81.60
2022-08-17T23:08:56.783Z,82.40
2022-08-17T23:11:36.774Z,82.20
2022-08-17T23:14:16.728Z,83.40
2022-08-17T23:16:43.393Z,82.80
2022-08-17T23:19:12.170Z,83.50
2022-08-17T23:21:39.230Z,83.60
2022-08-17T23:24:06.702Z,84.40
2022-08-17T23:26:34.856Z,84.50
2022-08-17T23:29:01.630Z,84.80
2022-08-17T23:31:28.368Z,85.00
2022-08-17T23:33:55.040Z,85.70
2022-08-17T23:36:21.698Z,86.10
2022-08-17T23:38:48.360Z,86.40
2022-08-17T23:41:18.282Z,86.70
2022-08-17T23:43:47.588Z,87.20
2022-08-17T23:46:14.605Z,87.80
2022-08-17T23:48:41.302Z,87.70
2022-08-17T23:51:30.774Z,88.00
2022-08-17T23:54:08.013Z,88.40
2022-08-17T23:56:36.124Z,88.80
2022-08-17T23:59:02.812Z,88.80
